Time;durP1;ratioP1;P1;durP2;ratioP2;P2;SDS_P1;SDS_P2;PMS_P1;PMS_P2;Temp;Humidity;BMP_temperature;BMP_pressure;BME280_temperature;BME280_humidity;BME280_pressure;Samples;Min_cycle;Max_cycle;Signal;HPM_P1;HPM_P2
2022/06/27 00:00:06;;;;;;;;;17.75;14.00;;;;;;;;5099188;27;45642;-46
2022/06/27 00:02:31;;;;;;;;;7.40;6.20;;;;;;;;5086400;27;46946;-46
2022/06/27 00:04:57;;;;;;;;;5.75;5.00;;;;;;;;5078087;28;45248;-46
2022/06/27 00:07:22;;;;;;;;;8.75;7.75;;;;;;;;5077935;27;45481;-45
2022/06/27 00:09:47;;;;;;;;;6.00;4.00;;;;;;;;5077986;27;45438;-48
2022/06/27 00:12:13;;;;;;;;;6.50;6.00;;;;;;;;5077591;27;45433;-49
2022/06/27 00:14:38;;;;;;;;;4.50;4.50;;;;;;;;5077772;28;45410;-50
2022/06/27 00:17:03;;;;;;;;;8.50;7.00;;;;;;;;5077780;28;45410;-49
2022/06/27 00:19:29;;;;;;;;;3.25;2.50;;;;;;;;5078265;27;45751;-51
2022/06/27 00:21:54;;;;;;;;;4.75;4.75;;;;;;;;5093212;27;45990;-48
2022/06/27 00:24:19;;;;;;;;;6.25;4.50;;;;;;;;5077591;27;45387;-47
2022/06/27 00:26:45;;;;;;;;;3.00;3.00;;;;;;;;5077713;28;45327;-47
2022/06/27 00:29:10;;;;;;;;;5.50;4.75;;;;;;;;5088603;27;45294;-46
2022/06/27 00:31:35;;;;;;;;;2.00;2.00;;;;;;;;5097956;27;45788;-45
2022/06/27 00:34:01;;;;;;;;;4.00;4.00;;;;;;;;5097626;27;45313;-46
2022/06/27 00:36:26;;;;;;;;;2.00;2.00;;;;;;;;5098207;27;45304;-47
2022/06/27 00:38:51;;;;;;;;;4.00;3.00;;;;;;;;5098023;27;45516;-49
2022/06/27 00:41:16;;;;;;;;;4.00;4.00;;;;;;;;5098018;27;45469;-49
2022/06/27 00:43:44;;;;;;;;;3.00;2.75;;;;;;;;5097742;27;45297;-49
2022/06/27 00:46:10;;;;;;;;;13.00;12.20;;;;;;;;5097439;27;45396;-48
2022/06/27 00:48:35;;;;;;;;;3.25;3.25;;;;;;;;5098410;27;45375;-46
2022/06/27 00:51:00;;;;;;;;;4.75;3.75;;;;;;;;5097320;27;46772;-50
2022/06/27 00:53:26;;;;;;;;;3.00;3.00;;;;;;;;5097987;27;45295;-50
2022/06/27 00:55:51;;;;;;;;;3.75;3.25;;;;;;;;5097694;27;45371;-51
2022/06/27 00:58:16;;;;;;;;;3.50;3.00;;;;;;;;5096551;27;45496;-50
2022/06/27 01:00:41;;;;;;;;;2.50;2.50;;;;;;;;5097893;27;46571;-54
2022/06/27 01:03:07;;;;;;;;;3.75;3.75;;;;;;;;5070303;27;45315;-52
2022/06/27 01:05:32;;;;;;;;;4.75;3.00;;;;;;;;5097014;27;45295;-50
2022/06/27 01:07:57;;;;;;;;;5.75;4.25;;;;;;;;5097915;27;45422;-50
2022/06/27 01:10:22;;;;;;;;;3.25;3.25;;;;;;;;5096943;27;45504;-47
2022/06/27 01:12:48;;;;;;;;;4.50;3.00;;;;;;;;5097563;27;45382;-46
2022/06/27 01:15:13;;;;;;;;;4.00;4.00;;;;;;;;5096158;27;45570;-46
2022/06/27 01:17:39;;;;;;;;;4.50;4.25;;;;;;;;5097552;27;45299;-48
2022/06/27 01:20:05;;;;;;;;;5.25;5.25;;;;;;;;5097027;27;46689;-50
2022/06/27 01:22:30;;;;;;;;;5.25;5.00;;;;;;;;5096801;27;45201;-55
2022/06/27 01:24:55;;;;;;;;;6.75;6.00;;;;;;;;5097825;27;45753;-52
2022/06/27 01:27:21;;;;;;;;;5.75;5.75;;;;;;;;5097901;27;45606;-51
2022/06/27 01:29:46;;;;;;;;;10.00;10.00;;;;;;;;5095949;27;46251;-51
2022/06/27 01:32:11;;;;;;;;;3.00;3.00;;;;;;;;5097491;27;45235;-48
2022/06/27 01:34:36;;;;;;;;;9.25;6.00;;;;;;;;5097340;27;45794;-48
2022/06/27 01:37:02;;;;;;;;;4.25;4.25;;;;;;;;5097804;27;45649;-50
2022/06/27 01:39:27;;;;;;;;;6.50;4.50;;;;;;;;5097127;27;46482;-51
2022/06/27 01:41:54;;;;;;;;;6.00;3.00;;;;;;;;5097484;27;45256;-52
2022/06/27 01:44:20;;;;;;;;;3.80;3.80;;;;;;;;5097589;27;45465;-53
2022/06/27 01:46:46;;;;;;;;;4.25;4.00;;;;;;;;5097265;27;45373;-50
2022/06/27 01:49:12;;;;;;;;;2.80;2.80;;;;;;;;5096260;27;45512;-49
2022/06/27 01:51:38;;;;;;;;;5.75;4.75;;;;;;;;5097126;27;45480;-49
2022/06/27 01:54:04;;;;;;;;;4.40;4.00;;;;;;;;5097130;27;45384;-49
2022/06/27 01:56:29;;;;;;;;;3.00;3.00;;;;;;;;5097429;27;45333;-49
2022/06/27 01:58:57;;;;;;;;;5.50;4.50;;;;;;;;5096871;27;45468;-48
2022/06/27 02:01:23;;;;;;;;;3.60;3.60;;;;;;;;5097012;27;45328;-50
2022/06/27 02:03:48;;;;;;;;;4.40;3.80;;;;;;;;5097570;27;45403;-49
2022/06/27 02:06:13;;;;;;;;;4.25;3.00;;;;;;;;5116861;27;45312;-50
2022/06/27 02:08:41;;;;;;;;;2.75;2.75;;;;;;;;5115994;27;46382;-48
2022/06/27 02:11:07;;;;;;;;;3.00;3.00;;;;;;;;5117359;27;45335;-47
2022/06/27 02:13:32;;;;;;;;;4.00;3.00;;;;;;;;5117418;27;45260;-50
2022/06/27 02:16:01;;;;;;;;;4.00;4.00;;;;;;;;5117554;27;45326;-50
2022/06/27 02:18:26;;;;;;;;;7.40;5.20;;;;;;;;5117458;27;45789;-48
2022/06/27 02:20:52;;;;;;;;;3.00;3.00;;;;;;;;5117061;27;45749;-48
2022/06/27 02:23:17;;;;;;;;;5.50;3.75;;;;;;;;5117133;27;45284;-49
2022/06/27 02:25:45;;;;;;;;;5.60;4.60;;;;;;;;5117190;27;45329;-45
2022/06/27 02:28:11;;;;;;;;;4.00;3.20;;;;;;;;5115311;27;47959;-49
2022/06/27 02:30:36;;;;;;;;;3.75;3.75;;;;;;;;5095958;27;45393;-52
2022/06/27 02:33:03;;;;;;;;;2.00;2.00;;;;;;;;5096054;27;45317;-52
2022/06/27 02:35:28;;;;;;;;;5.40;5.00;;;;;;;;5095316;27;45653;-54
2022/06/27 02:37:53;;;;;;;;;3.25;3.25;;;;;;;;5094594;27;46556;-51
2022/06/27 02:40:18;;;;;;;;;7.75;3.75;;;;;;;;5095167;27;45545;-51
2022/06/27 02:42:44;;;;;;;;;3.00;3.00;;;;;;;;5095064;27;45415;-50
2022/06/27 02:45:09;;;;;;;;;3.75;2.50;;;;;;;;5096404;27;45910;-48
2022/06/27 02:47:34;;;;;;;;;5.00;2.00;;;;;;;;5096111;27;45703;-49
2022/06/27 02:50:00;;;;;;;;;3.00;3.00;;;;;;;;5096111;27;45374;-50
2022/06/27 02:52:26;;;;;;;;;2.25;2.25;;;;;;;;5094943;27;45352;-48
2022/06/27 02:54:59;;;;;;;;;4.60;3.00;;;;;;;;5095067;27;45670;-51
2022/06/27 02:57:32;;;;;;;;;4.80;3.60;;;;;;;;5095652;27;45994;-47
2022/06/27 02:59:57;;;;;;;;;2.00;2.00;;;;;;;;5094847;27;45395;-50
2022/06/27 03:02:23;;;;;;;;;4.50;3.00;;;;;;;;5094795;27;45476;-50
2022/06/27 03:04:48;;;;;;;;;6.75;4.00;;;;;;;;5095011;27;45393;-52
2022/06/27 03:07:13;;;;;;;;;5.25;5.00;;;;;;;;5095644;27;46889;-49
2022/06/27 03:09:39;;;;;;;;;5.75;4.50;;;;;;;;5095939;27;45632;-47
2022/06/27 03:12:04;;;;;;;;;3.00;3.00;;;;;;;;5095673;27;45359;-46
2022/06/27 03:14:29;;;;;;;;;3.75;3.75;;;;;;;;5095998;27;45376;-50
2022/06/27 03:16:55;;;;;;;;;5.00;3.00;;;;;;;;5094539;27;46443;-49
2022/06/27 03:19:20;;;;;;;;;2.75;2.75;;;;;;;;5095534;27;45308;-50
2022/06/27 03:21:46;;;;;;;;;3.00;3.00;;;;;;;;5095633;27;45359;-51
2022/06/27 03:24:11;;;;;;;;;5.00;4.00;;;;;;;;5095587;27;45322;-51
2022/06/27 03:26:36;;;;;;;;;3.75;2.25;;;;;;;;5096055;27;46615;-49
2022/06/27 03:29:03;;;;;;;;;2.50;2.50;;;;;;;;5099361;27;45299;-48
2022/06/27 03:31:28;;;;;;;;;3.00;3.00;;;;;;;;5099521;27;45386;-45
2022/06/27 03:33:54;;;;;;;;;3.50;3.50;;;;;;;;5099727;27;45397;-50
2022/06/27 03:36:19;;;;;;;;;4.75;2.50;;;;;;;;5099282;27;46513;-49
2022/06/27 03:38:45;;;;;;;;;3.00;3.00;;;;;;;;5099408;27;45291;-51
2022/06/27 03:41:10;;;;;;;;;3.75;3.00;;;;;;;;5099427;27;45329;-53
2022/06/27 03:43:35;;;;;;;;;3.00;2.25;;;;;;;;5099637;27;45253;-51
2022/06/27 03:46:00;;;;;;;;;2.25;2.25;;;;;;;;5098917;27;46801;-55
2022/06/27 03:51:10;;;;;;;;;4.60;3.40;;;;;;;;5099281;27;45376;-53
2022/06/27 03:53:36;;;;;;;;;6.00;3.00;;;;;;;;5099411;27;45529;-49
2022/06/27 03:56:01;;;;;;;;;6.00;6.00;;;;;;;;5098983;27;46843;-47
2022/06/27 03:58:26;;;;;;;;;2.00;2.00;;;;;;;;5098935;27;45508;-48
2022/06/27 04:00:52;;;;;;;;;4.00;4.00;;;;;;;;5099236;27;45322;-50
2022/06/27 04:03:17;;;;;;;;;3.25;3.00;;;;;;;;5099120;27;45620;-49
2022/06/27 04:05:42;;;;;;;;;3.00;3.00;;;;;;;;5098197;27;45810;-52
2022/06/27 04:08:08;;;;;;;;;5.00;5.00;;;;;;;;5098978;27;45334;-52
2022/06/27 04:10:33;;;;;;;;;5.00;4.00;;;;;;;;5098637;27;45226;-50
2022/06/27 04:12:58;;;;;;;;;3.75;3.75;;;;;;;;5099377;27;45551;-49
2022/06/27 04:15:24;;;;;;;;;5.00;4.00;;;;;;;;5098560;27;45653;-48
2022/06/27 04:17:49;;;;;;;;;3.00;3.00;;;;;;;;5098800;27;45375;-48
2022/06/27 04:20:14;;;;;;;;;3.50;3.50;;;;;;;;5098888;27;45292;-47
2022/06/27 04:22:39;;;;;;;;;2.50;2.50;;;;;;;;5098784;27;45463;-50
2022/06/27 04:25:05;;;;;;;;;2.50;2.25;;;;;;;;5097918;27;46535;-52
2022/06/27 04:27:30;;;;;;;;;3.75;2.75;;;;;;;;5098375;27;45315;-55
2022/06/27 04:29:56;;;;;;;;;3.75;2.75;;;;;;;;5098621;27;45406;-51
2022/06/27 04:32:25;;;;;;;;;3.50;3.50;;;;;;;;5097288;27;45578;-49
2022/06/27 04:34:50;;;;;;;;;3.80;3.80;;;;;;;;5097823;27;48237;-49
2022/06/27 04:37:16;;;;;;;;;3.00;3.00;;;;;;;;5097317;27;45412;-48
2022/06/27 04:39:41;;;;;;;;;5.50;3.00;;;;;;;;5097829;27;45384;-48
2022/06/27 04:42:07;;;;;;;;;1.00;0.00;;;;;;;;5098894;27;45524;-50
2022/06/27 04:44:35;;;;;;;;;3.75;3.25;;;;;;;;5097817;27;47956;-49
2022/06/27 04:47:02;;;;;;;;;4.60;4.60;;;;;;;;5082953;27;45678;-51
2022/06/27 04:49:28;;;;;;;;;3.00;3.00;;;;;;;;5118197;27;45414;-49
2022/06/27 04:51:54;;;;;;;;;5.40;3.00;;;;;;;;5114505;27;45519;-46
2022/06/27 04:54:20;;;;;;;;;3.40;3.40;;;;;;;;5118871;27;47015;-51
2022/06/27 04:56:46;;;;;;;;;4.40;3.60;;;;;;;;5118531;27;45375;-53
2022/06/27 04:59:12;;;;;;;;;5.00;4.25;;;;;;;;5118754;27;45332;-52
2022/06/27 05:01:38;;;;;;;;;3.00;3.00;;;;;;;;5119060;27;45431;-51
2022/06/27 05:04:03;;;;;;;;;3.00;3.00;;;;;;;;5118295;27;45737;-53
2022/06/27 05:06:29;;;;;;;;;3.75;3.75;;;;;;;;5118434;27;45397;-52
2022/06/27 05:08:54;;;;;;;;;4.25;3.50;;;;;;;;5118682;27;45227;-48
2022/06/27 05:11:20;;;;;;;;;3.00;3.00;;;;;;;;5118525;27;45504;-46
2022/06/27 05:13:45;;;;;;;;;3.75;3.75;;;;;;;;5118438;27;45911;-50
2022/06/27 05:16:10;;;;;;;;;1.50;1.50;;;;;;;;5118308;27;45321;-53
2022/06/27 05:18:36;;;;;;;;;5.00;3.75;;;;;;;;5117600;27;45353;-49
2022/06/27 05:21:01;;;;;;;;;4.50;3.75;;;;;;;;5118375;27;45561;-50
2022/06/27 05:23:26;;;;;;;;;5.00;5.00;;;;;;;;5118002;27;45396;-50
2022/06/27 05:25:51;;;;;;;;;5.00;5.00;;;;;;;;5118139;27;45341;-50
2022/06/27 05:28:17;;;;;;;;;3.00;3.00;;;;;;;;5118493;27;45296;-49
2022/06/27 05:30:42;;;;;;;;;4.50;4.50;;;;;;;;5101770;27;45310;-48
2022/06/27 05:33:07;;;;;;;;;3.00;3.00;;;;;;;;5097344;27;46418;-47
2022/06/27 05:35:33;;;;;;;;;7.00;7.00;;;;;;;;5097446;27;45229;-50
2022/06/27 05:37:59;;;;;;;;;3.60;3.60;;;;;;;;5097843;27;45473;-53
2022/06/27 05:40:25;;;;;;;;;5.50;4.00;;;;;;;;5097814;27;45290;-50
2022/06/27 05:42:50;;;;;;;;;3.00;3.00;;;;;;;;5097367;27;46546;-54
2022/06/27 05:45:16;;;;;;;;;2.25;2.25;;;;;;;;5097043;27;45406;-52
2022/06/27 05:47:42;;;;;;;;;4.00;4.00;;;;;;;;5082972;27;45802;-49
2022/06/27 05:50:07;;;;;;;;;4.00;4.00;;;;;;;;5094565;27;45422;-50
2022/06/27 05:52:33;;;;;;;;;4.00;4.00;;;;;;;;5096205;27;45888;-46
2022/06/27 05:54:59;;;;;;;;;4.00;4.00;;;;;;;;5097016;27;45363;-50
2022/06/27 05:57:25;;;;;;;;;4.40;3.80;;;;;;;;5097439;27;45431;-47
2022/06/27 05:59:52;;;;;;;;;4.00;4.00;;;;;;;;5097295;27;45468;-49
2022/06/27 06:02:18;;;;;;;;;3.60;3.60;;;;;;;;5096873;27;47586;-48
2022/06/27 06:04:44;;;;;;;;;2.80;2.80;;;;;;;;5096853;27;45336;-50
2022/06/27 06:07:09;;;;;;;;;6.00;6.00;;;;;;;;5096712;27;45279;-47
2022/06/27 06:09:35;;;;;;;;;3.25;3.25;;;;;;;;5097132;27;45334;-48
2022/06/27 06:12:00;;;;;;;;;3.75;2.75;;;;;;;;5096800;27;46349;-45
2022/06/27 06:14:26;;;;;;;;;4.00;3.00;;;;;;;;5096463;27;45351;-44
2022/06/27 06:16:52;;;;;;;;;4.00;4.00;;;;;;;;5097023;27;45383;-49
2022/06/27 06:19:17;;;;;;;;;5.75;3.25;;;;;;;;5097172;27;45407;-49
2022/06/27 06:21:42;;;;;;;;;3.50;3.50;;;;;;;;5096664;27;46509;-52
2022/06/27 06:24:08;;;;;;;;;4.00;4.00;;;;;;;;5096508;27;45365;-53
2022/06/27 06:26:34;;;;;;;;;4.00;4.00;;;;;;;;5096427;27;45781;-51
2022/06/27 06:29:05;;;;;;;;;5.00;4.00;;;;;;;;5096568;27;45672;-53
2022/06/27 06:31:30;;;;;;;;;4.00;3.00;;;;;;;;5095697;27;46955;-45
2022/06/27 06:33:56;;;;;;;;;3.00;3.00;;;;;;;;5095068;27;45379;-52
2022/06/27 06:36:21;;;;;;;;;5.00;5.00;;;;;;;;5096116;27;45799;-51
2022/06/27 06:38:47;;;;;;;;;3.75;3.75;;;;;;;;5096603;27;45318;-50
2022/06/27 06:41:14;;;;;;;;;4.00;4.00;;;;;;;;5096078;27;46578;-49
2022/06/27 06:43:39;;;;;;;;;6.00;4.00;;;;;;;;5096076;27;45447;-48
2022/06/27 06:46:05;;;;;;;;;4.25;4.00;;;;;;;;5096207;27;45329;-48
2022/06/27 06:48:30;;;;;;;;;7.00;7.00;;;;;;;;5096055;27;45304;-47
2022/06/27 06:50:55;;;;;;;;;4.75;4.75;;;;;;;;5090129;27;46638;-46
2022/06/27 06:53:21;;;;;;;;;2.50;2.50;;;;;;;;5089119;27;45396;-46
2022/06/27 06:55:48;;;;;;;;;3.75;3.75;;;;;;;;5094306;27;45396;-49
2022/06/27 06:58:13;;;;;;;;;6.20;3.60;;;;;;;;5096324;27;45465;-49
2022/06/27 07:00:39;;;;;;;;;5.00;4.75;;;;;;;;5095741;27;45743;-49
2022/06/27 07:03:05;;;;;;;;;3.00;3.00;;;;;;;;5099907;27;45487;-48
2022/06/27 07:05:32;;;;;;;;;4.00;4.00;;;;;;;;5099306;27;45306;-50
2022/06/27 07:07:58;;;;;;;;;4.80;4.00;;;;;;;;5097812;27;45349;-50
2022/06/27 07:10:25;;;;;;;;;2.00;2.00;;;;;;;;5078770;27;46460;-45
2022/06/27 07:12:51;;;;;;;;;3.20;2.80;;;;;;;;5078448;27;45288;-51
2022/06/27 07:15:17;;;;;;;;;2.20;1.40;;;;;;;;5079479;27;45336;-49
2022/06/27 07:17:45;;;;;;;;;4.00;4.00;;;;;;;;5073986;27;45516;-49
2022/06/27 07:20:11;;;;;;;;;3.40;3.40;;;;;;;;5096987;27;45789;-50
2022/06/27 07:22:36;;;;;;;;;4.50;4.50;;;;;;;;5098869;27;45457;-48
2022/06/27 07:25:04;;;;;;;;;3.00;3.00;;;;;;;;5098805;27;45463;-44
2022/06/27 07:27:31;;;;;;;;;2.40;2.40;;;;;;;;5099651;27;45423;-49
2022/06/27 07:29:59;;;;;;;;;3.40;3.00;;;;;;;;5097185;27;47042;-54
2022/06/27 07:32:29;;;;;;;;;4.60;3.60;;;;;;;;5097323;27;45397;-54
2022/06/27 07:34:57;;;;;;;;;4.20;3.60;;;;;;;;5097470;27;45323;-45
2022/06/27 07:37:23;;;;;;;;;3.40;3.40;;;;;;;;5099908;27;45556;-48
2022/06/27 07:39:49;;;;;;;;;4.40;4.40;;;;;;;;5098171;27;46498;-49
2022/06/27 07:42:15;;;;;;;;;4.80;4.40;;;;;;;;5098875;27;45220;-51
2022/06/27 07:44:41;;;;;;;;;5.00;4.00;;;;;;;;5098227;27;45374;-49
2022/06/27 07:47:07;;;;;;;;;5.00;3.40;;;;;;;;5099059;27;45530;-49
2022/06/27 07:49:32;;;;;;;;;6.50;4.75;;;;;;;;5098989;27;45390;-48
2022/06/27 07:51:57;;;;;;;;;4.00;4.00;;;;;;;;5080644;27;45460;-49
2022/06/27 07:54:23;;;;;;;;;7.00;4.00;;;;;;;;5094886;27;45308;-49
2022/06/27 07:56:49;;;;;;;;;2.50;2.50;;;;;;;;5097904;27;45554;-50
2022/06/27 07:59:15;;;;;;;;;5.75;4.75;;;;;;;;5098614;27;47440;-53
2022/06/27 08:01:40;;;;;;;;;9.20;4.00;;;;;;;;5098940;27;45362;-52
2022/06/27 08:04:08;;;;;;;;;3.00;3.00;;;;;;;;5099054;27;45299;-52
2022/06/27 08:06:33;;;;;;;;;6.60;4.60;;;;;;;;5098809;27;45528;-51
2022/06/27 08:09:00;;;;;;;;;6.75;3.75;;;;;;;;5097701;27;45716;-50
2022/06/27 08:11:29;;;;;;;;;4.00;4.00;;;;;;;;5098405;27;45370;-46
2022/06/27 08:13:55;;;;;;;;;10.20;9.00;;;;;;;;5096927;27;45308;-52
2022/06/27 08:16:21;;;;;;;;;5.75;5.50;;;;;;;;5098838;27;46148;-52
2022/06/27 08:18:47;;;;;;;;;6.00;5.40;;;;;;;;5088794;27;45826;-54
2022/06/27 08:21:14;;;;;;;;;4.00;3.00;;;;;;;;5097512;27;45604;-49
2022/06/27 08:23:39;;;;;;;;;5.20;4.20;;;;;;;;5097871;27;45731;-45
2022/06/27 08:26:06;;;;;;;;;4.75;3.00;;;;;;;;5098668;27;45180;-46
2022/06/27 08:28:33;;;;;;;;;5.40;4.20;;;;;;;;5092929;27;45780;-48
2022/06/27 08:31:01;;;;;;;;;6.40;3.20;;;;;;;;5088774;27;45514;-51
2022/06/27 08:33:28;;;;;;;;;4.00;4.00;;;;;;;;5095631;27;45475;-51
2022/06/27 08:35:55;;;;;;;;;1.00;1.00;;;;;;;;5096681;27;45361;-45
2022/06/27 08:38:22;;;;;;;;;3.40;3.40;;;;;;;;5096412;27;47863;-43
2022/06/27 08:40:47;;;;;;;;;2.40;2.40;;;;;;;;5097167;27;45395;-50
2022/06/27 08:43:13;;;;;;;;;3.25;3.00;;;;;;;;5097224;27;45385;-48
2022/06/27 08:45:38;;;;;;;;;3.50;2.00;;;;;;;;5095564;27;45626;-50
2022/06/27 08:48:07;;;;;;;;;2.75;2.75;;;;;;;;5096937;27;45747;-49
2022/06/27 08:50:35;;;;;;;;;3.00;3.00;;;;;;;;5096054;27;45341;-49
2022/06/27 08:53:01;;;;;;;;;2.20;2.20;;;;;;;;5096980;27;45871;-48
2022/06/27 08:55:27;;;;;;;;;6.75;3.00;;;;;;;;5079011;27;45406;-49
2022/06/27 08:57:52;;;;;;;;;1.00;1.00;;;;;;;;5082605;27;46130;-52
2022/06/27 09:00:18;;;;;;;;;3.00;2.25;;;;;;;;5076312;27;45264;-51
2022/06/27 09:02:43;;;;;;;;;5.50;2.00;;;;;;;;5058542;27;45434;-52
2022/06/27 09:05:18;;;;;;;;;2.50;1.00;;;;;;;;5077261;27;45538;-53
2022/06/27 09:07:50;;;;;;;;;2.60;2.20;;;;;;;;5075998;28;45463;-50
2022/06/27 09:10:24;;;;;;;;;1.20;1.00;;;;;;;;5076753;27;45924;-50
2022/06/27 09:12:57;;;;;;;;;2.40;2.40;;;;;;;;5077358;27;45185;-52
2022/06/27 09:15:44;;;;;;;;;1.20;1.20;;;;;;;;5077486;27;45306;-49
2022/06/27 09:18:09;;;;;;;;;6.00;4.40;;;;;;;;5076949;27;46790;-49
2022/06/27 09:20:54;;;;;;;;;3.50;3.25;;;;;;;;5077035;27;45394;-45
2022/06/27 09:23:45;;;;;;;;;3.00;2.60;;;;;;;;5076874;27;45301;-44
2022/06/27 09:26:15;;;;;;;;;2.00;1.20;;;;;;;;5076296;27;45333;-51
2022/06/27 09:28:40;;;;;;;;;3.00;3.00;;;;;;;;5076347;27;45414;-47
2022/06/27 09:31:09;;;;;;;;;2.50;1.00;;;;;;;;5089427;27;45362;-45
2022/06/27 09:33:37;;;;;;;;;2.00;2.00;;;;;;;;5097025;27;45441;-44
2022/06/27 09:36:12;;;;;;;;;2.00;2.00;;;;;;;;5075482;27;45661;-49
2022/06/27 09:38:40;;;;;;;;;1.20;0.80;;;;;;;;5073055;27;46157;-51
2022/06/27 09:41:06;;;;;;;;;1.00;1.00;;;;;;;;5068554;27;45444;-52
2022/06/27 09:43:34;;;;;;;;;7.25;5.75;;;;;;;;5078303;27;45739;-49
2022/06/27 09:45:59;;;;;;;;;1.80;1.80;;;;;;;;5090768;27;45581;-51
2022/06/27 09:48:26;;;;;;;;;1.75;1.75;;;;;;;;5088947;27;47174;-51
2022/06/27 09:50:51;;;;;;;;;2.20;1.80;;;;;;;;5091863;27;45426;-49
2022/06/27 09:53:17;;;;;;;;;0.75;0.75;;;;;;;;5090720;27;45405;-49
2022/06/27 09:55:44;;;;;;;;;1.60;1.60;;;;;;;;5091702;27;45403;-49
2022/06/27 09:58:10;;;;;;;;;1.00;1.00;;;;;;;;5090340;27;47098;-47
2022/06/27 10:00:36;;;;;;;;;2.40;1.60;;;;;;;;5090305;27;45838;-52
2022/06/27 10:03:04;;;;;;;;;0.00;0.00;;;;;;;;5079719;27;45589;-50
2022/06/27 10:05:29;;;;;;;;;0.80;0.80;;;;;;;;5071076;27;45608;-51
2022/06/27 10:07:55;;;;;;;;;1.25;1.25;;;;;;;;5076180;27;47601;-52
2022/06/27 10:10:20;;;;;;;;;0.75;0.50;;;;;;;;5090848;27;45775;-45
2022/06/27 10:12:56;;;;;;;;;2.25;2.25;;;;;;;;5090051;27;45633;-47
2022/06/27 10:15:22;;;;;;;;;1.80;1.80;;;;;;;;5091325;27;45453;-49
2022/06/27 10:17:47;;;;;;;;;3.25;1.50;;;;;;;;5090568;27;46130;-46
2022/06/27 10:20:19;;;;;;;;;1.50;0.50;;;;;;;;5084845;27;45774;-46
2022/06/27 10:22:46;;;;;;;;;3.20;2.20;;;;;;;;5077363;27;45563;-48
2022/06/27 10:25:27;;;;;;;;;1.80;1.40;;;;;;;;5110326;27;45746;-48
2022/06/27 10:28:14;;;;;;;;;2.80;2.80;;;;;;;;5112627;27;46488;-49
2022/06/27 10:30:46;;;;;;;;;1.40;0.60;;;;;;;;5104086;27;45453;-49
2022/06/27 10:33:23;;;;;;;;;2.40;1.20;;;;;;;;5091174;27;45486;-47
2022/06/27 10:38:39;;;;;;;;;1.40;1.40;;;;;;;;5092046;27;46142;-47
2022/06/27 10:41:10;;;;;;;;;2.40;1.40;;;;;;;;5091932;27;45434;-47
2022/06/27 10:43:35;;;;;;;;;1.00;1.00;;;;;;;;5092209;27;45776;-46
2022/06/27 10:46:21;;;;;;;;;2.00;1.00;;;;;;;;5091883;27;45554;-49
2022/06/27 10:48:53;;;;;;;;;1.80;1.80;;;;;;;;5076084;27;46734;-48
2022/06/27 10:51:18;;;;;;;;;2.80;1.60;;;;;;;;5090465;27;45460;-50
2022/06/27 10:53:43;;;;;;;;;2.50;1.00;;;;;;;;5091918;27;45455;-51
2022/06/27 10:56:27;;;;;;;;;2.75;2.75;;;;;;;;5091809;27;45692;-49
2022/06/27 10:58:53;;;;;;;;;3.00;3.00;;;;;;;;5091949;27;46336;-53
2022/06/27 11:01:18;;;;;;;;;2.50;0.50;;;;;;;;5091523;27;45858;-51
2022/06/27 11:03:43;;;;;;;;;3.25;1.25;;;;;;;;5090495;27;45506;-51
2022/06/27 11:06:13;;;;;;;;;1.25;1.25;;;;;;;;5090543;27;45441;-52
2022/06/27 11:08:39;;;;;;;;;4.20;2.00;;;;;;;;5091534;27;46072;-51
2022/06/27 11:11:04;;;;;;;;;1.00;1.00;;;;;;;;5091553;27;45732;-50
2022/06/27 11:13:36;;;;;;;;;2.00;2.00;;;;;;;;5091806;27;45411;-49
2022/06/27 11:16:02;;;;;;;;;0.00;0.00;;;;;;;;5091873;27;45467;-46
2022/06/27 11:18:27;;;;;;;;;2.80;1.80;;;;;;;;5091332;27;45835;-47
2022/06/27 11:20:57;;;;;;;;;2.00;2.00;;;;;;;;5082186;27;45388;-50
2022/06/27 11:23:22;;;;;;;;;1.40;1.40;;;;;;;;5104386;27;45836;-52
2022/06/27 11:25:49;;;;;;;;;8.50;2.50;;;;;;;;5112280;27;45430;-50
2022/06/27 11:33:46;;;;;;;;;1.40;1.40;;;;;;;;5091712;27;45399;-47
2022/06/27 11:36:12;;;;;;;;;1.60;1.00;;;;;;;;5081924;27;45673;-50
2022/06/27 11:38:40;;;;;;;;;2.20;2.20;;;;;;;;5072051;27;45912;-54
2022/06/27 11:41:05;;;;;;;;;1.00;1.00;;;;;;;;5091576;27;45716;-52
2022/06/27 11:43:49;;;;;;;;;0.25;0.00;;;;;;;;5091642;27;45907;-51
2022/06/27 11:46:25;;;;;;;;;2.00;0.60;;;;;;;;5091576;27;45719;-54
2022/06/27 11:48:51;;;;;;;;;1.00;1.00;;;;;;;;5091874;27;45410;-54
2022/06/27 11:51:20;;;;;;;;;2.00;2.00;;;;;;;;5094982;27;45539;-51
2022/06/27 11:53:55;;;;;;;;;0.00;0.00;;;;;;;;5095139;27;45416;-56
2022/06/27 11:56:24;;;;;;;;;1.40;1.40;;;;;;;;5093327;27;45628;-53
2022/06/27 11:58:50;;;;;;;;;2.80;1.00;;;;;;;;5094825;27;47091;-54
2022/06/27 12:01:15;;;;;;;;;0.00;0.00;;;;;;;;5094845;27;45437;-51
2022/06/27 12:03:40;;;;;;;;;0.00;0.00;;;;;;;;5094539;27;45501;-52
2022/06/27 12:06:15;;;;;;;;;0.00;0.00;;;;;;;;5094950;27;45387;-46
2022/06/27 12:09:02;;;;;;;;;1.00;1.00;;;;;;;;5094469;27;46405;-53
2022/06/27 12:11:28;;;;;;;;;2.00;1.00;;;;;;;;5089206;27;45824;-51
2022/06/27 12:13:58;;;;;;;;;1.25;0.00;;;;;;;;5074202;28;45430;-48
2022/06/27 12:16:23;;;;;;;;;1.20;1.20;;;;;;;;5078015;27;45887;-51
2022/06/27 12:18:51;;;;;;;;;1.50;0.75;;;;;;;;5086115;27;46654;-51
2022/06/27 12:21:16;;;;;;;;;0.00;0.00;;;;;;;;5068205;27;45834;-53
2022/06/27 12:23:42;;;;;;;;;0.00;0.00;;;;;;;;5081761;27;45451;-49
2022/06/27 12:26:08;;;;;;;;;0.25;0.25;;;;;;;;5093474;27;45474;-49
2022/06/27 12:28:33;;;;;;;;;0.00;0.00;;;;;;;;5093337;27;46393;-49
2022/06/27 12:30:58;;;;;;;;;1.00;0.00;;;;;;;;5092479;27;45770;-47
2022/06/27 12:33:24;;;;;;;;;0.00;0.00;;;;;;;;5093677;27;45466;-49
2022/06/27 12:35:49;;;;;;;;;1.00;1.00;;;;;;;;5062748;27;45451;-53
2022/06/27 12:38:14;;;;;;;;;1.25;1.25;;;;;;;;5072184;27;46150;-53
2022/06/27 12:40:39;;;;;;;;;1.00;1.00;;;;;;;;5072728;28;45448;-52
2022/06/27 12:43:05;;;;;;;;;1.00;1.00;;;;;;;;5088232;27;45424;-53
2022/06/27 12:45:34;;;;;;;;;5.00;4.75;;;;;;;;5092957;27;45667;-48
2022/06/27 12:47:59;;;;;;;;;6.00;2.80;;;;;;;;5092557;27;46423;-47
2022/06/27 12:50:24;;;;;;;;;0.25;0.25;;;;;;;;5092643;27;45405;-47
2022/06/27 12:52:49;;;;;;;;;1.00;1.00;;;;;;;;5092449;27;45734;-51
2022/06/27 12:55:15;;;;;;;;;1.00;1.00;;;;;;;;5093327;27;45400;-51
2022/06/27 12:57:40;;;;;;;;;1.00;1.00;;;;;;;;5092660;27;45597;-51
2022/06/27 13:00:06;;;;;;;;;2.00;2.00;;;;;;;;5091828;27;45633;-52
2022/06/27 13:02:32;;;;;;;;;2.75;2.00;;;;;;;;5092945;27;45426;-48
2022/06/27 13:04:57;;;;;;;;;1.00;1.00;;;;;;;;5092588;27;45758;-53
2022/06/27 13:07:22;;;;;;;;;2.25;2.00;;;;;;;;5091989;27;46862;-47
2022/06/27 13:09:48;;;;;;;;;5.50;1.50;;;;;;;;5092701;27;45481;-50
2022/06/27 13:12:13;;;;;;;;;4.00;2.75;;;;;;;;5092595;27;45453;-51
2022/06/27 13:14:38;;;;;;;;;2.00;1.00;;;;;;;;5077141;27;45577;-54
2022/06/27 13:17:04;;;;;;;;;1.25;1.25;;;;;;;;5091697;27;46876;-53
2022/06/27 13:19:29;;;;;;;;;1.00;1.00;;;;;;;;5092796;27;45710;-54
2022/06/27 13:21:55;;;;;;;;;1.00;1.00;;;;;;;;5091944;27;45453;-51
2022/06/27 13:24:20;;;;;;;;;4.50;1.00;;;;;;;;5091952;27;45668;-52
2022/06/27 13:26:46;;;;;;;;;1.50;1.50;;;;;;;;5092066;27;45869;-45
2022/06/27 13:29:11;;;;;;;;;1.00;1.00;;;;;;;;5091935;27;45736;-46
2022/06/27 13:31:36;;;;;;;;;1.00;1.00;;;;;;;;5092379;27;45369;-51
2022/06/27 13:34:01;;;;;;;;;2.00;0.00;;;;;;;;5081128;27;45712;-51
2022/06/27 13:36:27;;;;;;;;;1.00;1.00;;;;;;;;5062998;27;46051;-50
2022/06/27 13:38:52;;;;;;;;;0.75;0.00;;;;;;;;5071564;27;45677;-50
2022/06/27 13:41:17;;;;;;;;;3.00;1.75;;;;;;;;5072137;28;45708;-50
2022/06/27 13:43:43;;;;;;;;;1.50;0.25;;;;;;;;5071159;28;45644;-49
2022/06/27 13:46:08;;;;;;;;;2.00;1.00;;;;;;;;5077174;27;45758;-51
2022/06/27 13:48:33;;;;;;;;;1.00;1.00;;;;;;;;5092515;27;45795;-46
2022/06/27 13:50:59;;;;;;;;;1.50;0.00;;;;;;;;5092856;27;45556;-47
2022/06/27 13:53:24;;;;;;;;;0.00;0.00;;;;;;;;5092638;27;45769;-53
2022/06/27 13:55:49;;;;;;;;;0.00;0.00;;;;;;;;5092581;27;47305;-50
2022/06/27 13:58:15;;;;;;;;;0.25;0.25;;;;;;;;5092365;27;45334;-56
2022/06/27 14:00:40;;;;;;;;;1.25;1.25;;;;;;;;5093013;27;45325;-54
2022/06/27 14:03:05;;;;;;;;;1.00;1.00;;;;;;;;5092814;27;45667;-54
2022/06/27 14:05:31;;;;;;;;;2.50;1.00;;;;;;;;5090792;27;45642;-54
2022/06/27 14:07:56;;;;;;;;;1.00;1.00;;;;;;;;5092344;27;45775;-47
2022/06/27 14:10:22;;;;;;;;;0.00;0.00;;;;;;;;5092123;27;45492;-47
2022/06/27 14:12:48;;;;;;;;;0.00;0.00;;;;;;;;5092370;27;45784;-48
2022/06/27 14:15:13;;;;;;;;;0.00;0.00;;;;;;;;5085139;27;45697;-48
2022/06/27 14:17:38;;;;;;;;;0.25;0.25;;;;;;;;5090466;27;45445;-57
2022/06/27 14:20:05;;;;;;;;;0.50;0.50;;;;;;;;5109488;27;45376;-54
2022/06/27 14:22:30;;;;;;;;;2.00;1.00;;;;;;;;5091067;27;45504;-49
2022/06/27 14:24:55;;;;;;;;;0.25;0.25;;;;;;;;5091537;27;46780;-46
2022/06/27 14:27:21;;;;;;;;;0.00;0.00;;;;;;;;5091744;27;45365;-46
2022/06/27 14:29:46;;;;;;;;;2.00;0.75;;;;;;;;5089692;27;45398;-53
2022/06/27 14:32:11;;;;;;;;;1.00;1.00;;;;;;;;5092039;27;45855;-52
2022/06/27 14:34:37;;;;;;;;;2.00;0.00;;;;;;;;5072397;27;47462;-48
2022/06/27 14:37:02;;;;;;;;;2.00;2.00;;;;;;;;5071303;27;46431;-53
2022/06/27 14:39:28;;;;;;;;;0.50;0.50;;;;;;;;5110824;27;45393;-49
2022/06/27 14:41:53;;;;;;;;;3.25;2.25;;;;;;;;5109758;27;45334;-52
2022/06/27 14:44:18;;;;;;;;;0.00;0.00;;;;;;;;5110774;27;45951;-50
2022/06/27 14:46:44;;;;;;;;;0.75;0.75;;;;;;;;5111031;27;45289;-45
2022/06/27 14:49:09;;;;;;;;;0.25;0.25;;;;;;;;5111053;27;45809;-51